createdAt,value
2023-02-14T00:01:30.451Z,5.44
2023-02-14T00:04:01.561Z,5.42
2023-02-14T00:06:29.846Z,5.44
2023-02-14T00:08:57.838Z,5.42
2023-02-14T00:11:25.817Z,5.45
2023-02-14T00:14:11.023Z,5.39
2023-02-14T00:16:38.930Z,5.47
2023-02-14T00:19:08.929Z,5.48
2023-02-14T00:21:39.462Z,5.51
2023-02-14T00:24:10.193Z,5.54
2023-02-14T00:26:39.629Z,5.58
2023-02-14T00:29:10.296Z,5.60
2023-02-14T00:31:38.801Z,5.61
2023-02-14T00:34:09.118Z,5.63
2023-02-14T00:36:37.521Z,5.62
2023-02-14T00:39:06.200Z,5.63
2023-02-14T00:41:34.887Z,5.64
2023-02-14T00:44:03.236Z,5.66
2023-02-14T00:46:31.200Z,5.62
2023-02-14T00:48:59.574Z,5.66
2023-02-14T00:51:29.227Z,5.68
2023-02-14T00:53:57.200Z,5.73
2023-02-14T00:56:25.108Z,5.78
2023-02-14T00:58:53.013Z,5.80
2023-02-14T01:01:21.649Z,5.82
2023-02-14T01:03:49.624Z,5.82
2023-02-14T01:06:19.875Z,5.80
2023-02-14T01:08:49.156Z,5.79
2023-02-14T01:11:19.703Z,5.80
2023-02-14T01:13:49.357Z,5.72
2023-02-14T01:16:20.356Z,5.75
2023-02-14T01:18:49.635Z,5.67
2023-02-14T01:21:20.374Z,5.80
2023-02-14T01:23:53.119Z,5.83
2023-02-14T01:26:22.644Z,5.80
2023-02-14T01:28:50.951Z,5.78
2023-02-14T01:31:20.661Z,5.72
2023-02-14T01:33:50.420Z,5.79
2023-02-14T01:36:20.193Z,5.77
2023-02-14T01:38:48.848Z,5.77
2023-02-14T01:41:18.218Z,5.77
2023-02-14T01:43:55.837Z,5.76
2023-02-14T01:46:26.044Z,5.77
2023-02-14T01:48:56.568Z,5.79
2023-02-14T01:51:24.755Z,5.84
2023-02-14T01:53:55.591Z,5.85
2023-02-14T01:56:29.759Z,5.85
2023-02-14T01:59:01.614Z,5.85
2023-02-14T02:01:31.373Z,5.84
2023-02-14T02:04:07.963Z,5.83
2023-02-14T02:06:41.341Z,5.80
2023-02-14T02:09:14.180Z,5.81
2023-02-14T02:11:44.291Z,5.77
2023-02-14T02:14:15.879Z,5.82
2023-02-14T02:17:09.301Z,5.85
2023-02-14T02:20:08.986Z,5.84
2023-02-14T02:23:08.518Z,5.84
2023-02-14T02:26:00.774Z,5.71
2023-02-14T02:29:10.239Z,5.86
2023-02-14T02:32:06.903Z,5.85
2023-02-14T02:35:13.369Z,5.85
2023-02-14T02:37:50.484Z,5.73
2023-02-14T02:40:30.602Z,5.81
2023-02-14T02:43:11.170Z,5.81
2023-02-14T02:46:00.808Z,5.83
2023-02-14T02:48:37.999Z,5.81
2023-02-14T02:51:41.009Z,5.82
2023-02-14T02:54:15.725Z,5.80
2023-02-14T02:56:51.234Z,5.80
2023-02-14T02:59:23.200Z,5.79
2023-02-14T03:01:59.588Z,5.75
2023-02-14T03:04:45.947Z,5.78
2023-02-14T03:07:33.237Z,5.80
2023-02-14T03:10:03.069Z,5.81
2023-02-14T03:13:16.932Z,5.81
2023-02-14T03:16:24.539Z,5.83
2023-02-14T03:19:45.016Z,5.84
2023-02-14T03:22:28.612Z,5.84
2023-02-14T03:25:05.143Z,5.84
2023-02-14T03:27:39.859Z,5.86
2023-02-14T03:30:15.682Z,5.86
2023-02-14T03:32:48.923Z,5.84
2023-02-14T03:35:23.823Z,5.84
2023-02-14T03:38:00.957Z,5.86
2023-02-14T03:40:33.710Z,5.87
2023-02-14T03:43:07.701Z,5.88
2023-02-14T03:45:39.276Z,5.88
2023-02-14T03:48:11.944Z,5.86
2023-02-14T03:50:42.614Z,5.88
2023-02-14T03:53:13.846Z,5.90
2023-02-14T03:55:47.845Z,5.89
2023-02-14T03:58:20.465Z,5.89
2023-02-14T04:00:51.776Z,5.87
2023-02-14T04:03:21.333Z,5.88
2023-02-14T04:05:52.388Z,5.88
2023-02-14T04:08:27.000Z,5.87
2023-02-14T04:10:58.097Z,5.89
2023-02-14T04:13:26.252Z,5.88
2023-02-14T04:15:54.347Z,5.88
2023-02-14T04:18:39.822Z,5.86
2023-02-14T04:21:07.699Z,5.83
2023-02-14T04:23:37.162Z,5.86
2023-02-14T04:26:05.470Z,5.86
2023-02-14T04:28:33.684Z,5.82
2023-02-14T04:31:03.626Z,5.87
2023-02-14T04:33:32.198Z,5.87
2023-02-14T04:36:00.173Z,5.80
2023-02-14T04:38:28.000Z,5.84
2023-02-14T04:40:57.433Z,5.85
2023-02-14T04:43:25.388Z,5.85
2023-02-14T04:45:53.281Z,5.84
2023-02-14T04:48:21.210Z,5.81
2023-02-14T04:50:52.865Z,5.82
2023-02-14T04:53:20.729Z,5.82
2023-02-14T04:55:50.280Z,5.82
2023-02-14T04:58:19.611Z,5.81
2023-02-14T05:00:48.005Z,5.78
2023-02-14T05:03:16.014Z,5.79
2023-02-14T05:05:43.880Z,5.79
2023-02-14T05:08:11.775Z,5.79
2023-02-14T05:10:39.611Z,5.70
2023-02-14T05:13:07.622Z,5.75
2023-02-14T05:15:38.541Z,5.74
2023-02-14T05:18:06.706Z,5.73
2023-02-14T05:20:34.543Z,5.72
2023-02-14T05:23:05.124Z,5.72
2023-02-14T05:25:33.275Z,5.71
2023-02-14T05:28:01.140Z,5.71
2023-02-14T05:30:30.296Z,5.69
2023-02-14T05:32:59.870Z,5.65
2023-02-14T05:35:28.017Z,5.62
2023-02-14T05:37:55.904Z,5.57
2023-02-14T05:40:26.715Z,5.66
2023-02-14T05:42:55.885Z,5.67
2023-02-14T05:45:24.340Z,5.67
2023-02-14T05:47:52.564Z,5.67
2023-02-14T05:50:21.900Z,5.62
2023-02-14T05:52:49.741Z,5.68
2023-02-14T05:55:17.640Z,5.67
2023-02-14T05:57:45.482Z,5.66
2023-02-14T06:00:14.710Z,5.64
2023-02-14T06:02:42.701Z,5.62
2023-02-14T06:05:10.562Z,5.62
2023-02-14T06:07:39.744Z,5.62
2023-02-14T06:10:09.862Z,5.65
2023-02-14T06:12:37.830Z,5.67
2023-02-14T06:15:06.368Z,5.69
2023-02-14T06:17:34.226Z,5.65
2023-02-14T06:20:02.076Z,5.72
2023-02-14T06:22:30.723Z,5.72
2023-02-14T06:25:00.094Z,5.71
2023-02-14T06:27:29.505Z,5.72
2023-02-14T06:29:57.877Z,5.62
2023-02-14T06:32:26.030Z,5.73
2023-02-14T06:34:53.948Z,5.61
2023-02-14T06:37:21.898Z,5.79
2023-02-14T06:39:49.950Z,5.80
2023-02-14T06:42:19.344Z,5.81
2023-02-14T06:44:47.255Z,5.83
2023-02-14T06:47:15.524Z,5.75
2023-02-14T06:49:43.439Z,5.85
2023-02-14T06:52:11.708Z,5.89
2023-02-14T06:54:39.530Z,5.86
2023-02-14T06:57:07.473Z,5.85
2023-02-14T06:59:37.003Z,5.93
2023-02-14T07:02:04.933Z,5.92
2023-02-14T07:04:32.910Z,5.97
2023-02-14T07:07:01.464Z,5.98
2023-02-14T07:09:30.058Z,6.03
2023-02-14T07:11:57.874Z,6.07
2023-02-14T07:14:25.916Z,6.08
2023-02-14T07:16:55.170Z,6.13
2023-02-14T07:19:23.090Z,6.16
2023-02-14T07:21:50.890Z,6.19
2023-02-14T07:24:18.750Z,6.21
2023-02-14T07:26:46.677Z,6.22
2023-02-14T07:29:14.513Z,6.22
2023-02-14T07:31:42.584Z,6.22
2023-02-14T07:34:12.116Z,6.21
2023-02-14T07:36:40.102Z,6.14
2023-02-14T07:39:08.012Z,6.13
2023-02-14T07:41:35.887Z,6.09
2023-02-14T07:44:07.083Z,6.09
2023-02-14T07:46:35.029Z,6.09
2023-02-14T07:49:02.981Z,6.05
2023-02-14T07:51:32.234Z,6.05
2023-02-14T07:54:00.397Z,6.09
2023-02-14T07:56:28.284Z,6.03
2023-02-14T07:58:56.435Z,6.05
2023-02-14T08:01:24.519Z,6.08
2023-02-14T08:03:52.755Z,6.08
2023-02-14T08:06:21.520Z,6.05
2023-02-14T08:08:50.778Z,6.08
2023-02-14T08:11:32.593Z,6.16
2023-02-14T08:14:00.454Z,6.20
2023-02-14T08:16:28.361Z,6.21
2023-02-14T08:18:56.332Z,6.22
2023-02-14T08:21:24.141Z,6.25
2023-02-14T08:23:53.436Z,6.28
2023-02-14T08:26:21.256Z,6.31
2023-02-14T08:28:49.164Z,6.37
2023-02-14T08:31:34.452Z,6.46
2023-02-14T08:34:02.899Z,6.49
2023-02-14T08:36:30.787Z,6.49
2023-02-14T08:39:00.032Z,6.51
2023-02-14T08:41:28.200Z,6.48
2023-02-14T08:43:56.076Z,6.46
2023-02-14T08:46:24.052Z,6.43
2023-02-14T08:48:53.418Z,6.39
2023-02-14T08:51:22.705Z,6.34
2023-02-14T08:53:51.927Z,6.36
2023-02-14T08:56:22.651Z,6.40
2023-02-14T08:58:54.015Z,6.43
2023-02-14T09:01:22.135Z,6.43
2023-02-14T09:03:50.609Z,6.57
2023-02-14T09:06:18.790Z,6.72
2023-02-14T09:08:47.479Z,6.82
2023-02-14T09:11:18.508Z,6.90
2023-02-14T09:13:48.241Z,6.85
2023-02-14T09:16:18.299Z,6.86
2023-02-14T09:18:47.420Z,6.93
2023-02-14T09:21:17.082Z,7.00
2023-02-14T09:23:45.090Z,6.94
2023-02-14T09:26:15.269Z,6.97
2023-02-14T09:28:43.419Z,6.98
2023-02-14T09:31:15.290Z,6.98
2023-02-14T09:34:01.826Z,6.96
2023-02-14T09:36:47.301Z,6.91
2023-02-14T09:39:15.201Z,6.94
2023-02-14T09:42:11.313Z,7.03
2023-02-14T09:44:43.438Z,7.08
2023-02-14T09:47:35.021Z,7.11
2023-02-14T09:50:05.867Z,7.14
2023-02-14T09:52:34.347Z,7.17
2023-02-14T09:55:03.930Z,7.37
2023-02-14T09:57:42.550Z,7.52
2023-02-14T10:00:27.078Z,7.61
2023-02-14T10:03:04.686Z,7.68
2023-02-14T10:05:39.214Z,7.58
2023-02-14T10:08:24.108Z,7.53
2023-02-14T10:11:01.724Z,7.29
2023-02-14T10:13:36.414Z,7.24
2023-02-14T10:16:13.127Z,7.27
2023-02-14T10:18:47.535Z,7.21
2023-02-14T10:21:23.714Z,7.20
2023-02-14T10:23:57.290Z,7.14
2023-02-14T10:26:29.094Z,7.14
2023-02-14T10:28:57.317Z,7.05
2023-02-14T10:31:27.272Z,7.00
2023-02-14T10:33:59.580Z,7.02
2023-02-14T10:36:42.384Z,7.00
2023-02-14T10:39:27.107Z,7.02
2023-02-14T10:42:01.361Z,7.07
2023-02-14T10:44:43.509Z,6.99
2023-02-14T10:47:33.435Z,6.90
2023-02-14T10:50:12.065Z,6.95
2023-02-14T10:52:45.639Z,6.95
2023-02-14T10:55:31.545Z,7.06
2023-02-14T10:58:05.154Z,7.07
2023-02-14T11:00:35.820Z,7.05
2023-02-14T11:03:08.233Z,7.06
2023-02-14T11:05:41.191Z,7.03
2023-02-14T11:08:16.159Z,7.01
2023-02-14T11:10:44.177Z,6.99
2023-02-14T11:13:30.759Z,7.05
2023-02-14T11:16:03.758Z,6.99
2023-02-14T11:18:36.221Z,7.08
2023-02-14T11:21:09.162Z,7.02
2023-02-14T11:23:40.118Z,7.01
2023-02-14T11:26:12.936Z,7.09
2023-02-14T11:28:55.346Z,7.06
2023-02-14T11:31:29.483Z,7.01
2023-02-14T11:33:58.916Z,7.03
2023-02-14T11:36:30.298Z,7.02
2023-02-14T11:39:04.401Z,7.05
2023-02-14T11:41:49.177Z,7.06
2023-02-14T11:44:22.648Z,7.12
2023-02-14T11:46:53.550Z,7.15
2023-02-14T11:49:29.115Z,7.13
2023-02-14T11:51:59.887Z,7.20
2023-02-14T11:54:35.980Z,7.24
2023-02-14T11:57:07.928Z,7.14
2023-02-14T11:59:41.694Z,7.13
2023-02-14T12:02:21.742Z,7.13
2023-02-14T12:04:52.956Z,7.19
2023-02-14T12:07:26.167Z,7.19
2023-02-14T12:10:09.970Z,7.22
2023-02-14T12:12:37.862Z,7.22
2023-02-14T12:15:24.121Z,7.25
2023-02-14T12:17:57.700Z,7.28
2023-02-14T12:20:39.122Z,7.29
2023-02-14T12:23:14.678Z,7.30
2023-02-14T12:25:48.006Z,7.29
2023-02-14T12:28:21.059Z,7.35
2023-02-14T12:30:50.674Z,7.32
2023-02-14T12:33:20.784Z,7.33
2023-02-14T12:35:56.326Z,7.43
2023-02-14T12:38:39.944Z,7.47
2023-02-14T12:41:22.256Z,7.53
2023-02-14T12:43:52.416Z,7.69
2023-02-14T12:46:55.791Z,7.76
2023-02-14T12:49:49.452Z,7.84
2023-02-14T12:52:34.238Z,7.91
2023-02-14T12:55:20.366Z,8.00
2023-02-14T12:57:52.811Z,8.09
2023-02-14T13:00:31.709Z,8.12
2023-02-14T13:03:15.321Z,8.17
2023-02-14T13:05:55.436Z,8.25
2023-02-14T13:08:42.137Z,8.31
2023-02-14T13:11:20.727Z,8.33
2023-02-14T13:14:04.228Z,8.49
2023-02-14T13:16:40.465Z,8.60
2023-02-14T13:19:18.915Z,8.68
2023-02-14T13:21:48.084Z,8.78
2023-02-14T13:24:21.022Z,8.80
2023-02-14T13:26:55.392Z,8.84
2023-02-14T13:29:25.549Z,8.97
2023-02-14T13:31:57.195Z,8.98
2023-02-14T13:34:31.559Z,9.14
2023-02-14T13:37:01.616Z,9.20
2023-02-14T13:39:37.795Z,9.20
2023-02-14T13:42:08.543Z,9.16
2023-02-14T13:44:44.108Z,9.39
2023-02-14T13:47:19.341Z,9.41
2023-02-14T13:49:49.806Z,9.36
2023-02-14T13:52:42.578Z,9.39
2023-02-14T13:55:17.802Z,9.47
2023-02-14T13:57:48.288Z,9.53
2023-02-14T14:00:43.939Z,9.62
2023-02-14T14:03:16.352Z,9.68
2023-02-14T14:06:02.229Z,9.71
2023-02-14T14:08:45.643Z,9.55
2023-02-14T14:11:59.661Z,9.67
2023-02-14T14:14:37.295Z,9.73
2023-02-14T14:17:20.708Z,9.75
2023-02-14T14:19:48.792Z,9.78
2023-02-14T14:22:17.688Z,9.84
2023-02-14T14:25:07.405Z,9.84
2023-02-14T14:27:37.274Z,9.76
2023-02-14T14:30:16.925Z,9.70
2023-02-14T14:32:46.472Z,9.76
2023-02-14T14:35:19.981Z,9.82
2023-02-14T14:37:49.876Z,9.91
2023-02-14T14:40:24.865Z,9.86
2023-02-14T14:42:54.953Z,9.76
2023-02-14T14:45:27.364Z,9.74
2023-02-14T14:47:57.397Z,9.74
2023-02-14T14:50:27.813Z,9.80
2023-02-14T14:52:58.689Z,9.73
2023-02-14T14:55:30.063Z,9.72
2023-02-14T14:58:00.581Z,9.62
2023-02-14T15:00:33.417Z,9.66
2023-02-14T15:03:05.078Z,9.58
2023-02-14T15:05:35.234Z,9.59
2023-02-14T15:08:23.406Z,9.59
2023-02-14T15:10:55.376Z,9.60
2023-02-14T15:13:49.055Z,9.60
2023-02-14T15:16:28.203Z,9.58
2023-02-14T15:18:59.955Z,9.50
2023-02-14T15:21:29.007Z,9.48
2023-02-14T15:23:56.933Z,9.47
2023-02-14T15:26:29.936Z,9.44
2023-02-14T15:28:59.972Z,9.36
2023-02-14T15:31:32.594Z,9.31
2023-02-14T15:34:02.694Z,9.22
2023-02-14T15:36:32.288Z,9.16
2023-02-14T15:39:02.373Z,9.00
2023-02-14T15:41:30.379Z,8.86
2023-02-14T15:43:58.803Z,8.70
2023-02-14T15:46:33.752Z,8.56
2023-02-14T15:49:06.963Z,8.50
2023-02-14T15:51:36.421Z,8.38
2023-02-14T15:54:07.562Z,8.24
2023-02-14T15:56:42.787Z,8.03
2023-02-14T15:59:18.256Z,7.80
2023-02-14T16:01:54.214Z,7.63
2023-02-14T16:04:27.129Z,7.44
2023-02-14T16:07:08.853Z,7.23
2023-02-14T16:09:37.702Z,7.12
2023-02-14T16:12:33.080Z,6.98
2023-02-14T16:15:18.727Z,6.85
2023-02-14T16:17:49.172Z,6.76
2023-02-14T16:20:39.913Z,6.68
2023-02-14T16:23:26.311Z,6.43
2023-02-14T16:25:57.204Z,6.51
2023-02-14T16:28:28.632Z,6.44
2023-02-14T16:30:58.743Z,6.38
2023-02-14T16:33:29.981Z,6.31
2023-02-14T16:36:06.272Z,6.27
2023-02-14T16:38:41.565Z,6.21
2023-02-14T16:41:16.133Z,6.14
2023-02-14T16:43:44.011Z,6.09
2023-02-14T16:46:14.196Z,6.03
2023-02-14T16:48:45.336Z,5.99
2023-02-14T16:51:15.202Z,5.94
2023-02-14T16:53:44.293Z,5.88
2023-02-14T16:56:16.483Z,5.84
2023-02-14T16:58:44.954Z,5.71
2023-02-14T17:01:12.873Z,5.72
2023-02-14T17:03:42.464Z,5.68
2023-02-14T17:06:15.951Z,5.66
2023-02-14T17:08:44.833Z,5.60
2023-02-14T17:11:13.077Z,5.58
2023-02-14T17:13:44.405Z,5.50
2023-02-14T17:16:15.630Z,5.47
2023-02-14T17:18:47.695Z,5.56
2023-02-14T17:21:18.254Z,5.67
2023-02-14T17:23:46.069Z,5.75
2023-02-14T17:26:14.271Z,5.76
2023-02-14T17:28:42.120Z,5.77
2023-02-14T17:31:10.079Z,5.78
2023-02-14T17:33:38.937Z,5.76
2023-02-14T17:36:10.726Z,5.72
2023-02-14T17:38:43.409Z,5.64
2023-02-14T17:41:12.996Z,5.64
2023-02-14T17:43:40.883Z,5.63
2023-02-14T17:46:08.867Z,5.67
2023-02-14T17:48:36.772Z,5.69
2023-02-14T17:51:06.456Z,5.67
2023-02-14T17:53:34.352Z,5.68
2023-02-14T17:56:07.216Z,5.67
2023-02-14T17:58:35.421Z,5.67
2023-02-14T18:01:04.895Z,5.64
2023-02-14T18:03:33.108Z,5.66
2023-02-14T18:06:01.820Z,5.56
2023-02-14T18:08:31.012Z,5.66
2023-02-14T18:10:59.058Z,5.63
2023-02-14T18:13:28.506Z,5.60
2023-02-14T18:15:56.444Z,5.56
2023-02-14T18:18:25.979Z,5.52
2023-02-14T18:20:54.961Z,5.51
2023-02-14T18:23:23.013Z,5.50
2023-02-14T18:25:54.335Z,5.50
2023-02-14T18:28:24.796Z,5.48
2023-02-14T18:30:54.262Z,5.42
2023-02-14T18:33:22.997Z,5.45
2023-02-14T18:35:52.058Z,5.37
2023-02-14T18:38:20.436Z,5.36
2023-02-14T18:40:48.558Z,5.42
2023-02-14T18:43:16.379Z,5.39
2023-02-14T18:45:44.276Z,5.35
2023-02-14T18:48:13.588Z,5.29
2023-02-14T18:50:42.023Z,5.28
2023-02-14T18:53:09.875Z,5.28
2023-02-14T18:55:38.053Z,5.26
2023-02-14T18:58:07.856Z,5.23
2023-02-14T19:00:35.882Z,5.18
2023-02-14T19:03:03.812Z,5.14
2023-02-14T19:05:33.858Z,5.11
2023-02-14T19:08:03.577Z,5.06
2023-02-14T19:10:31.682Z,5.05
2023-02-14T19:12:59.711Z,5.00
2023-02-14T19:15:28.418Z,5.04
2023-02-14T19:17:56.369Z,4.98
2023-02-14T19:20:24.317Z,4.94
2023-02-14T19:22:53.817Z,4.92
2023-02-14T19:25:21.815Z,4.91
2023-02-14T19:27:49.749Z,4.91
2023-02-14T19:30:18.198Z,4.92
2023-02-14T19:32:46.039Z,4.90
2023-02-14T19:35:13.968Z,4.92
2023-02-14T19:37:42.126Z,4.94
2023-02-14T19:40:12.124Z,4.98
2023-02-14T19:42:40.034Z,4.92
2023-02-14T19:45:08.629Z,5.07
2023-02-14T19:47:46.571Z,5.09
2023-02-14T19:50:15.326Z,5.07
2023-02-14T19:52:43.903Z,5.08
2023-02-14T19:55:21.686Z,5.11
2023-02-14T19:57:49.513Z,5.08
2023-02-14T20:00:18.283Z,5.07
2023-02-14T20:02:48.149Z,5.06
2023-02-14T20:05:17.558Z,4.95
2023-02-14T20:07:49.148Z,5.00
2023-02-14T20:10:18.794Z,4.87
2023-02-14T20:12:46.670Z,5.00
2023-02-14T20:15:14.530Z,4.98
2023-02-14T20:17:42.397Z,4.93
2023-02-14T20:20:13.636Z,4.81
2023-02-14T20:22:41.690Z,4.73
2023-02-14T20:25:10.477Z,4.73
2023-02-14T20:27:39.746Z,4.73
2023-02-14T20:30:09.107Z,4.75
2023-02-14T20:32:37.201Z,4.78
2023-02-14T20:35:05.516Z,4.68
2023-02-14T20:37:33.446Z,4.61
2023-02-14T20:40:01.378Z,4.55
2023-02-14T20:42:29.234Z,4.45
2023-02-14T20:44:58.506Z,4.38
2023-02-14T20:47:26.387Z,4.35
2023-02-14T20:49:54.294Z,4.29
2023-02-14T20:52:22.293Z,4.25
2023-02-14T20:54:50.218Z,4.22
2023-02-14T20:57:18.176Z,4.20
2023-02-14T20:59:46.201Z,4.16
2023-02-14T21:02:15.875Z,4.10
2023-02-14T21:04:43.743Z,3.95
2023-02-14T21:07:11.641Z,3.99
2023-02-14T21:09:39.715Z,3.94
2023-02-14T21:12:08.434Z,3.87
2023-02-14T21:14:36.381Z,3.91
2023-02-14T21:17:05.390Z,3.89
2023-02-14T21:19:34.675Z,3.83
2023-02-14T21:22:02.623Z,3.77
2023-02-14T21:24:30.554Z,3.74
2023-02-14T21:26:58.616Z,3.72
2023-02-14T21:29:26.818Z,3.72
2023-02-14T21:31:54.863Z,3.70
2023-02-14T21:34:23.003Z,3.64
2023-02-14T21:36:56.019Z,3.64
2023-02-14T21:39:27.337Z,3.64
2023-02-14T21:41:56.293Z,3.65
2023-02-14T21:44:38.224Z,3.62
2023-02-14T21:47:06.190Z,3.57
2023-02-14T21:49:51.806Z,3.50
2023-02-14T21:52:21.144Z,3.48
2023-02-14T21:54:49.104Z,3.49
2023-02-14T21:57:16.942Z,3.44
2023-02-14T21:59:44.848Z,3.42
2023-02-14T22:02:13.385Z,3.40
2023-02-14T22:04:43.231Z,3.38
2023-02-14T22:07:11.383Z,3.35
2023-02-14T22:09:40.669Z,3.34
2023-02-14T22:12:08.678Z,3.33
2023-02-14T22:14:36.537Z,3.32
2023-02-14T22:17:04.626Z,3.27
2023-02-14T22:19:32.494Z,3.29
2023-02-14T22:22:00.341Z,3.30
2023-02-14T22:24:28.337Z,3.26
2023-02-14T22:26:57.523Z,3.21
2023-02-14T22:29:25.391Z,3.22
2023-02-14T22:31:53.354Z,3.19
2023-02-14T22:34:21.410Z,3.20
2023-02-14T22:36:49.632Z,3.20
2023-02-14T22:39:17.921Z,3.12
2023-02-14T22:41:46.562Z,3.05
2023-02-14T22:44:15.796Z,2.87
2023-02-14T22:46:44.049Z,2.74
2023-02-14T22:49:12.065Z,2.61
2023-02-14T22:51:41.551Z,2.54
2023-02-14T22:54:12.332Z,2.53
2023-02-14T22:56:42.017Z,2.50
2023-02-14T22:59:16.700Z,2.51
2023-02-14T23:01:44.888Z,2.51
2023-02-14T23:04:13.359Z,2.48
2023-02-14T23:06:41.335Z,2.46
2023-02-14T23:09:10.682Z,2.37
2023-02-14T23:11:40.525Z,2.36
2023-02-14T23:14:26.322Z,2.29
2023-02-14T23:17:13.091Z,2.36
2023-02-14T23:20:03.660Z,2.36
2023-02-14T23:22:33.577Z,2.50
2023-02-14T23:25:03.572Z,2.64
2023-02-14T23:27:33.869Z,2.85
2023-02-14T23:30:02.970Z,2.93
2023-02-14T23:32:32.369Z,2.98
2023-02-14T23:35:00.291Z,3.00
2023-02-14T23:37:28.329Z,2.99
2023-02-14T23:39:56.158Z,3.07
2023-02-14T23:42:24.120Z,3.02
2023-02-14T23:44:52.132Z,2.89
2023-02-14T23:47:20.018Z,2.83
2023-02-14T23:49:49.261Z,2.86
2023-02-14T23:52:17.176Z,2.91
2023-02-14T23:54:45.111Z,2.96
2023-02-14T23:57:12.946Z,2.95
2023-02-14T23:59:40.885Z,2.99
